sensor_id;sensor_type;location;lat;lon;timestamp;P1;durP1;ratioP1;P2;durP2;ratioP2
18804;SDS011;9530;48.930;9.526;2023-02-08T00:01:59;16.73;;;9.53;;
18804;SDS011;9530;48.930;9.526;2023-02-08T00:04:26;15.33;;;9.13;;
18804;SDS011;9530;48.930;9.526;2023-02-08T00:06:53;19.23;;;9.50;;
18804;SDS011;9530;48.930;9.526;2023-02-08T00:09:19;14.37;;;8.50;;
18804;SDS011;9530;48.930;9.526;2023-02-08T00:11:46;16.40;;;10.17;;
18804;SDS011;9530;48.930;9.526;2023-02-08T00:14:13;15.43;;;10.00;;
18804;SDS011;9530;48.930;9.526;2023-02-08T00:16:41;15.27;;;9.93;;
18804;SDS011;9530;48.930;9.526;2023-02-08T00:19:07;18.93;;;10.03;;
18804;SDS011;9530;48.930;9.526;2023-02-08T00:21:34;14.63;;;9.37;;
18804;SDS011;9530;48.930;9.526;2023-02-08T00:24:01;17.73;;;9.90;;
18804;SDS011;9530;48.930;9.526;2023-02-08T00:26:27;16.40;;;8.93;;
18804;SDS011;9530;48.930;9.526;2023-02-08T00:28:54;15.00;;;9.50;;
18804;SDS011;9530;48.930;9.526;2023-02-08T00:31:21;16.20;;;9.87;;
18804;SDS011;9530;48.930;9.526;2023-02-08T00:33:49;19.27;;;10.80;;
18804;SDS011;9530;48.930;9.526;2023-02-08T00:36:15;17.67;;;10.73;;
18804;SDS011;9530;48.930;9.526;2023-02-08T00:38:42;14.93;;;9.57;;
18804;SDS011;9530;48.930;9.526;2023-02-08T00:41:09;21.17;;;10.40;;
18804;SDS011;9530;48.930;9.526;2023-02-08T00:43:36;22.17;;;12.60;;
18804;SDS011;9530;48.930;9.526;2023-02-08T00:46:03;20.43;;;11.60;;
18804;SDS011;9530;48.930;9.526;2023-02-08T00:48:30;28.30;;;14.30;;
18804;SDS011;9530;48.930;9.526;2023-02-08T00:50:59;20.93;;;11.57;;
18804;SDS011;9530;48.930;9.526;2023-02-08T00:53:27;17.57;;;10.87;;
18804;SDS011;9530;48.930;9.526;2023-02-08T00:55:54;19.60;;;11.57;;
18804;SDS011;9530;48.930;9.526;2023-02-08T00:58:21;18.93;;;11.30;;
18804;SDS011;9530;48.930;9.526;2023-02-08T01:00:49;22.17;;;11.57;;
18804;SDS011;9530;48.930;9.526;2023-02-08T01:03:17;21.47;;;12.00;;
18804;SDS011;9530;48.930;9.526;2023-02-08T01:05:43;19.87;;;11.40;;
18804;SDS011;9530;48.930;9.526;2023-02-08T01:08:11;17.33;;;10.63;;
18804;SDS011;9530;48.930;9.526;2023-02-08T01:10:38;19.00;;;11.17;;
18804;SDS011;9530;48.930;9.526;2023-02-08T01:13:05;19.87;;;11.53;;
18804;SDS011;9530;48.930;9.526;2023-02-08T01:15:32;17.70;;;11.20;;
18804;SDS011;9530;48.930;9.526;2023-02-08T01:17:59;16.43;;;10.43;;
18804;SDS011;9530;48.930;9.526;2023-02-08T01:20:26;18.80;;;10.33;;
18804;SDS011;9530;48.930;9.526;2023-02-08T01:22:54;19.43;;;10.73;;
18804;SDS011;9530;48.930;9.526;2023-02-08T01:25:22;20.40;;;11.47;;
18804;SDS011;9530;48.930;9.526;2023-02-08T01:27:49;17.33;;;11.70;;
18804;SDS011;9530;48.930;9.526;2023-02-08T01:30:15;16.43;;;10.43;;
18804;SDS011;9530;48.930;9.526;2023-02-08T01:32:42;19.80;;;11.27;;
18804;SDS011;9530;48.930;9.526;2023-02-08T01:35:09;20.77;;;11.07;;
18804;SDS011;9530;48.930;9.526;2023-02-08T01:37:36;17.73;;;11.23;;
18804;SDS011;9530;48.930;9.526;2023-02-08T01:40:03;20.63;;;11.17;;
18804;SDS011;9530;48.930;9.526;2023-02-08T01:42:32;20.73;;;12.23;;
18804;SDS011;9530;48.930;9.526;2023-02-08T01:48:05;31.87;;;16.43;;
18804;SDS011;9530;48.930;9.526;2023-02-08T01:50:38;43.93;;;22.30;;
18804;SDS011;9530;48.930;9.526;2023-02-08T01:53:10;40.70;;;21.93;;
18804;SDS011;9530;48.930;9.526;2023-02-08T01:55:39;39.60;;;20.77;;
18804;SDS011;9530;48.930;9.526;2023-02-08T01:58:12;29.87;;;16.30;;
18804;SDS011;9530;48.930;9.526;2023-02-08T02:00:39;27.03;;;13.47;;
18804;SDS011;9530;48.930;9.526;2023-02-08T02:03:06;21.40;;;12.87;;
18804;SDS011;9530;48.930;9.526;2023-02-08T02:05:34;22.13;;;12.50;;
18804;SDS011;9530;48.930;9.526;2023-02-08T02:08:06;18.93;;;11.60;;
18804;SDS011;9530;48.930;9.526;2023-02-08T02:10:34;20.03;;;12.27;;
18804;SDS011;9530;48.930;9.526;2023-02-08T02:13:02;20.37;;;11.80;;
18804;SDS011;9530;48.930;9.526;2023-02-08T02:15:33;19.60;;;11.97;;
18804;SDS011;9530;48.930;9.526;2023-02-08T02:18:00;18.87;;;10.77;;
18804;SDS011;9530;48.930;9.526;2023-02-08T02:20:31;23.87;;;11.67;;
18804;SDS011;9530;48.930;9.526;2023-02-08T02:23:21;17.77;;;10.67;;
18804;SDS011;9530;48.930;9.526;2023-02-08T02:32:08;16.03;;;9.93;;
18804;SDS011;9530;48.930;9.526;2023-02-08T02:34:44;17.47;;;9.73;;
18804;SDS011;9530;48.930;9.526;2023-02-08T02:37:18;15.10;;;9.10;;
18804;SDS011;9530;48.930;9.526;2023-02-08T02:40:02;16.70;;;9.37;;
18804;SDS011;9530;48.930;9.526;2023-02-08T02:42:36;15.80;;;9.67;;
18804;SDS011;9530;48.930;9.526;2023-02-08T02:45:30;15.97;;;9.80;;
18804;SDS011;9530;48.930;9.526;2023-02-08T02:48:04;18.37;;;9.87;;
18804;SDS011;9530;48.930;9.526;2023-02-08T02:50:36;15.03;;;9.17;;
18804;SDS011;9530;48.930;9.526;2023-02-08T02:53:09;15.70;;;9.27;;
18804;SDS011;9530;48.930;9.526;2023-02-08T02:55:42;18.10;;;10.03;;
18804;SDS011;9530;48.930;9.526;2023-02-08T02:58:13;15.17;;;8.80;;
18804;SDS011;9530;48.930;9.526;2023-02-08T03:00:42;14.00;;;8.47;;
18804;SDS011;9530;48.930;9.526;2023-02-08T03:03:12;14.47;;;8.50;;
18804;SDS011;9530;48.930;9.526;2023-02-08T03:05:45;16.10;;;9.53;;
18804;SDS011;9530;48.930;9.526;2023-02-08T03:08:17;15.97;;;9.47;;
18804;SDS011;9530;48.930;9.526;2023-02-08T03:11:08;14.10;;;9.30;;
18804;SDS011;9530;48.930;9.526;2023-02-08T03:13:45;14.87;;;9.37;;
18804;SDS011;9530;48.930;9.526;2023-02-08T03:16:23;13.73;;;8.60;;
18804;SDS011;9530;48.930;9.526;2023-02-08T03:19:01;15.17;;;9.00;;
18804;SDS011;9530;48.930;9.526;2023-02-08T03:21:36;15.87;;;9.50;;
18804;SDS011;9530;48.930;9.526;2023-02-08T03:24:13;17.00;;;10.37;;
18804;SDS011;9530;48.930;9.526;2023-02-08T03:26:52;15.63;;;9.77;;
18804;SDS011;9530;48.930;9.526;2023-02-08T03:29:25;17.33;;;10.30;;
18804;SDS011;9530;48.930;9.526;2023-02-08T03:32:01;16.80;;;10.07;;
18804;SDS011;9530;48.930;9.526;2023-02-08T03:34:35;17.40;;;10.40;;
18804;SDS011;9530;48.930;9.526;2023-02-08T03:37:10;13.33;;;9.27;;
18804;SDS011;9530;48.930;9.526;2023-02-08T03:39:41;14.70;;;9.73;;
18804;SDS011;9530;48.930;9.526;2023-02-08T03:42:11;15.20;;;8.97;;
18804;SDS011;9530;48.930;9.526;2023-02-08T03:44:43;16.20;;;9.27;;
18804;SDS011;9530;48.930;9.526;2023-02-08T03:47:15;17.00;;;9.67;;
18804;SDS011;9530;48.930;9.526;2023-02-08T03:49:47;15.90;;;9.67;;
18804;SDS011;9530;48.930;9.526;2023-02-08T03:52:17;16.73;;;10.37;;
18804;SDS011;9530;48.930;9.526;2023-02-08T03:54:48;16.40;;;10.57;;
18804;SDS011;9530;48.930;9.526;2023-02-08T03:57:20;15.50;;;9.63;;
18804;SDS011;9530;48.930;9.526;2023-02-08T03:59:51;17.07;;;9.93;;
18804;SDS011;9530;48.930;9.526;2023-02-08T04:02:22;17.23;;;10.73;;
18804;SDS011;9530;48.930;9.526;2023-02-08T04:04:53;18.37;;;10.57;;
18804;SDS011;9530;48.930;9.526;2023-02-08T04:07:21;16.73;;;10.33;;
18804;SDS011;9530;48.930;9.526;2023-02-08T04:09:48;18.87;;;10.47;;
18804;SDS011;9530;48.930;9.526;2023-02-08T04:12:15;17.43;;;10.27;;
18804;SDS011;9530;48.930;9.526;2023-02-08T04:14:41;18.87;;;10.43;;
18804;SDS011;9530;48.930;9.526;2023-02-08T04:17:08;21.23;;;10.37;;
18804;SDS011;9530;48.930;9.526;2023-02-08T04:19:35;16.77;;;10.37;;
18804;SDS011;9530;48.930;9.526;2023-02-08T04:22:03;18.23;;;10.97;;
18804;SDS011;9530;48.930;9.526;2023-02-08T04:24:29;17.40;;;10.40;;
18804;SDS011;9530;48.930;9.526;2023-02-08T04:26:56;17.13;;;11.00;;
18804;SDS011;9530;48.930;9.526;2023-02-08T04:29:23;17.93;;;10.80;;
18804;SDS011;9530;48.930;9.526;2023-02-08T04:31:49;16.13;;;10.70;;
18804;SDS011;9530;48.930;9.526;2023-02-08T04:34:16;19.23;;;11.50;;
18804;SDS011;9530;48.930;9.526;2023-02-08T04:36:42;19.37;;;10.97;;
18804;SDS011;9530;48.930;9.526;2023-02-08T04:39:10;17.13;;;10.53;;
18804;SDS011;9530;48.930;9.526;2023-02-08T04:41:37;19.67;;;11.37;;
18804;SDS011;9530;48.930;9.526;2023-02-08T04:44:04;18.53;;;10.90;;
18804;SDS011;9530;48.930;9.526;2023-02-08T04:46:30;18.80;;;10.33;;
18804;SDS011;9530;48.930;9.526;2023-02-08T04:48:57;19.00;;;10.70;;
18804;SDS011;9530;48.930;9.526;2023-02-08T04:51:24;19.13;;;10.83;;
18804;SDS011;9530;48.930;9.526;2023-02-08T04:53:50;17.50;;;9.97;;
18804;SDS011;9530;48.930;9.526;2023-02-08T04:56:18;17.80;;;10.87;;
18804;SDS011;9530;48.930;9.526;2023-02-08T04:58:45;17.50;;;10.17;;
18804;SDS011;9530;48.930;9.526;2023-02-08T05:01:12;19.50;;;10.87;;
18804;SDS011;9530;48.930;9.526;2023-02-08T05:03:40;19.83;;;10.53;;
18804;SDS011;9530;48.930;9.526;2023-02-08T05:06:06;17.00;;;10.93;;
18804;SDS011;9530;48.930;9.526;2023-02-08T05:08:33;19.93;;;10.80;;
18804;SDS011;9530;48.930;9.526;2023-02-08T05:11:00;22.03;;;11.10;;
18804;SDS011;9530;48.930;9.526;2023-02-08T05:13:28;18.63;;;10.90;;
18804;SDS011;9530;48.930;9.526;2023-02-08T05:15:55;17.47;;;11.10;;
18804;SDS011;9530;48.930;9.526;2023-02-08T05:18:21;21.93;;;11.07;;
18804;SDS011;9530;48.930;9.526;2023-02-08T05:20:52;20.97;;;11.47;;
18804;SDS011;9530;48.930;9.526;2023-02-08T05:23:20;17.57;;;10.30;;
18804;SDS011;9530;48.930;9.526;2023-02-08T05:25:46;19.70;;;10.60;;
18804;SDS011;9530;48.930;9.526;2023-02-08T05:28:13;19.33;;;11.17;;
18804;SDS011;9530;48.930;9.526;2023-02-08T05:30:42;21.83;;;11.97;;
18804;SDS011;9530;48.930;9.526;2023-02-08T05:33:08;21.60;;;11.90;;
18804;SDS011;9530;48.930;9.526;2023-02-08T05:35:35;19.50;;;11.80;;
18804;SDS011;9530;48.930;9.526;2023-02-08T05:38:02;22.33;;;12.90;;
18804;SDS011;9530;48.930;9.526;2023-02-08T05:40:28;19.60;;;11.53;;
18804;SDS011;9530;48.930;9.526;2023-02-08T05:42:55;19.67;;;11.50;;
18804;SDS011;9530;48.930;9.526;2023-02-08T05:45:22;20.00;;;11.77;;
18804;SDS011;9530;48.930;9.526;2023-02-08T05:47:50;17.80;;;10.70;;
18804;SDS011;9530;48.930;9.526;2023-02-08T05:50:16;20.67;;;11.37;;
18804;SDS011;9530;48.930;9.526;2023-02-08T05:52:43;20.83;;;11.63;;
18804;SDS011;9530;48.930;9.526;2023-02-08T05:55:10;22.57;;;12.23;;
18804;SDS011;9530;48.930;9.526;2023-02-08T05:57:37;21.00;;;11.90;;
18804;SDS011;9530;48.930;9.526;2023-02-08T06:00:04;19.07;;;11.33;;
18804;SDS011;9530;48.930;9.526;2023-02-08T06:02:31;21.80;;;12.20;;
18804;SDS011;9530;48.930;9.526;2023-02-08T06:04:59;21.63;;;12.50;;
18804;SDS011;9530;48.930;9.526;2023-02-08T06:07:26;20.20;;;11.67;;
18804;SDS011;9530;48.930;9.526;2023-02-08T06:09:53;22.37;;;12.13;;
18804;SDS011;9530;48.930;9.526;2023-02-08T06:12:20;20.20;;;11.63;;
18804;SDS011;9530;48.930;9.526;2023-02-08T06:14:47;21.33;;;12.33;;
18804;SDS011;9530;48.930;9.526;2023-02-08T06:17:14;23.97;;;11.60;;
18804;SDS011;9530;48.930;9.526;2023-02-08T06:19:40;21.60;;;12.07;;
18804;SDS011;9530;48.930;9.526;2023-02-08T06:22:08;22.07;;;12.00;;
18804;SDS011;9530;48.930;9.526;2023-02-08T06:24:35;19.37;;;11.30;;
18804;SDS011;9530;48.930;9.526;2023-02-08T06:27:02;22.43;;;12.17;;
18804;SDS011;9530;48.930;9.526;2023-02-08T06:29:28;22.47;;;12.13;;
18804;SDS011;9530;48.930;9.526;2023-02-08T06:31:55;21.27;;;12.37;;
18804;SDS011;9530;48.930;9.526;2023-02-08T06:34:22;21.33;;;11.53;;
18804;SDS011;9530;48.930;9.526;2023-02-08T06:36:48;19.90;;;11.07;;
18804;SDS011;9530;48.930;9.526;2023-02-08T06:39:16;18.97;;;11.10;;
18804;SDS011;9530;48.930;9.526;2023-02-08T06:41:43;19.60;;;10.97;;
18804;SDS011;9530;48.930;9.526;2023-02-08T06:44:10;19.23;;;11.17;;
18804;SDS011;9530;48.930;9.526;2023-02-08T06:46:36;18.57;;;11.70;;
18804;SDS011;9530;48.930;9.526;2023-02-08T06:49:03;19.23;;;11.50;;
18804;SDS011;9530;48.930;9.526;2023-02-08T06:51:29;19.67;;;10.97;;
18804;SDS011;9530;48.930;9.526;2023-02-08T06:53:56;17.80;;;10.50;;
18804;SDS011;9530;48.930;9.526;2023-02-08T06:56:24;20.27;;;11.00;;
18804;SDS011;9530;48.930;9.526;2023-02-08T06:58:51;22.37;;;11.27;;
18804;SDS011;9530;48.930;9.526;2023-02-08T07:01:17;17.87;;;10.87;;
18804;SDS011;9530;48.930;9.526;2023-02-08T07:03:44;18.50;;;10.60;;
18804;SDS011;9530;48.930;9.526;2023-02-08T07:06:11;22.40;;;11.80;;
18804;SDS011;9530;48.930;9.526;2023-02-08T07:08:38;21.63;;;12.20;;
18804;SDS011;9530;48.930;9.526;2023-02-08T07:11:06;19.30;;;11.30;;
18804;SDS011;9530;48.930;9.526;2023-02-08T07:13:35;21.30;;;12.27;;
18804;SDS011;9530;48.930;9.526;2023-02-08T07:16:02;21.13;;;11.80;;
18804;SDS011;9530;48.930;9.526;2023-02-08T07:18:29;19.20;;;11.40;;
18804;SDS011;9530;48.930;9.526;2023-02-08T07:20:56;18.60;;;11.43;;
18804;SDS011;9530;48.930;9.526;2023-02-08T07:23:22;20.97;;;11.37;;
18804;SDS011;9530;48.930;9.526;2023-02-08T07:25:55;21.40;;;12.60;;
18804;SDS011;9530;48.930;9.526;2023-02-08T07:28:23;23.47;;;12.50;;
18804;SDS011;9530;48.930;9.526;2023-02-08T07:30:51;21.03;;;12.27;;
18804;SDS011;9530;48.930;9.526;2023-02-08T07:33:18;19.20;;;11.17;;
18804;SDS011;9530;48.930;9.526;2023-02-08T07:35:45;23.47;;;12.03;;
18804;SDS011;9530;48.930;9.526;2023-02-08T07:38:12;18.53;;;11.37;;
18804;SDS011;9530;48.930;9.526;2023-02-08T07:40:39;23.40;;;13.03;;
18804;SDS011;9530;48.930;9.526;2023-02-08T07:43:05;28.60;;;12.57;;
18804;SDS011;9530;48.930;9.526;2023-02-08T07:45:32;19.13;;;11.63;;
18804;SDS011;9530;48.930;9.526;2023-02-08T07:48:00;21.93;;;13.00;;
18804;SDS011;9530;48.930;9.526;2023-02-08T07:50:27;21.63;;;12.23;;
18804;SDS011;9530;48.930;9.526;2023-02-08T07:52:54;19.23;;;11.70;;
18804;SDS011;9530;48.930;9.526;2023-02-08T07:55:20;21.10;;;11.63;;
18804;SDS011;9530;48.930;9.526;2023-02-08T07:57:47;24.37;;;12.47;;
18804;SDS011;9530;48.930;9.526;2023-02-08T08:00:15;22.93;;;13.03;;
18804;SDS011;9530;48.930;9.526;2023-02-08T08:02:43;21.40;;;12.30;;
18804;SDS011;9530;48.930;9.526;2023-02-08T08:05:11;20.80;;;12.23;;
18804;SDS011;9530;48.930;9.526;2023-02-08T08:07:38;20.03;;;11.67;;
18804;SDS011;9530;48.930;9.526;2023-02-08T08:10:05;20.93;;;11.50;;
18804;SDS011;9530;48.930;9.526;2023-02-08T08:12:32;21.47;;;11.43;;
18804;SDS011;9530;48.930;9.526;2023-02-08T08:14:58;19.00;;;11.07;;
18804;SDS011;9530;48.930;9.526;2023-02-08T08:17:25;19.87;;;12.27;;
18804;SDS011;9530;48.930;9.526;2023-02-08T08:19:52;19.80;;;11.13;;
18804;SDS011;9530;48.930;9.526;2023-02-08T08:22:20;18.70;;;10.80;;
18804;SDS011;9530;48.930;9.526;2023-02-08T08:24:46;19.90;;;11.27;;
18804;SDS011;9530;48.930;9.526;2023-02-08T08:27:13;18.87;;;11.73;;
18804;SDS011;9530;48.930;9.526;2023-02-08T08:29:40;19.63;;;11.60;;
18804;SDS011;9530;48.930;9.526;2023-02-08T08:32:06;19.83;;;10.93;;
18804;SDS011;9530;48.930;9.526;2023-02-08T08:34:33;19.53;;;10.90;;
18804;SDS011;9530;48.930;9.526;2023-02-08T08:37:00;17.13;;;10.73;;
18804;SDS011;9530;48.930;9.526;2023-02-08T08:39:29;22.30;;;11.00;;
18804;SDS011;9530;48.930;9.526;2023-02-08T08:41:56;18.13;;;10.57;;
18804;SDS011;9530;48.930;9.526;2023-02-08T08:44:23;16.10;;;9.97;;
18804;SDS011;9530;48.930;9.526;2023-02-08T08:46:52;14.63;;;9.63;;
18804;SDS011;9530;48.930;9.526;2023-02-08T08:49:20;19.93;;;10.50;;
18804;SDS011;9530;48.930;9.526;2023-02-08T08:51:46;17.77;;;10.40;;
18804;SDS011;9530;48.930;9.526;2023-02-08T08:54:13;19.87;;;10.00;;
18804;SDS011;9530;48.930;9.526;2023-02-08T08:56:41;21.83;;;11.87;;
18804;SDS011;9530;48.930;9.526;2023-02-08T08:59:08;17.27;;;10.63;;
18804;SDS011;9530;48.930;9.526;2023-02-08T09:01:35;17.17;;;10.70;;
18804;SDS011;9530;48.930;9.526;2023-02-08T09:04:03;16.60;;;10.23;;
18804;SDS011;9530;48.930;9.526;2023-02-08T09:06:29;16.60;;;10.43;;
18804;SDS011;9530;48.930;9.526;2023-02-08T09:08:56;15.20;;;9.93;;
18804;SDS011;9530;48.930;9.526;2023-02-08T09:11:23;17.93;;;10.63;;
18804;SDS011;9530;48.930;9.526;2023-02-08T09:13:51;16.77;;;10.13;;
18804;SDS011;9530;48.930;9.526;2023-02-08T09:16:20;17.00;;;9.90;;
18804;SDS011;9530;48.930;9.526;2023-02-08T09:18:48;18.30;;;11.27;;
18804;SDS011;9530;48.930;9.526;2023-02-08T09:21:16;18.03;;;10.80;;
18804;SDS011;9530;48.930;9.526;2023-02-08T09:23:44;16.30;;;9.90;;
18804;SDS011;9530;48.930;9.526;2023-02-08T09:26:12;16.73;;;10.53;;
18804;SDS011;9530;48.930;9.526;2023-02-08T09:28:40;18.20;;;10.57;;
18804;SDS011;9530;48.930;9.526;2023-02-08T09:31:09;16.87;;;10.00;;
18804;SDS011;9530;48.930;9.526;2023-02-08T09:33:36;15.20;;;9.27;;
18804;SDS011;9530;48.930;9.526;2023-02-08T09:36:04;18.47;;;10.63;;
18804;SDS011;9530;48.930;9.526;2023-02-08T09:38:32;17.80;;;9.70;;
18804;SDS011;9530;48.930;9.526;2023-02-08T09:41:01;17.43;;;9.93;;
18804;SDS011;9530;48.930;9.526;2023-02-08T09:43:36;17.37;;;9.47;;
18804;SDS011;9530;48.930;9.526;2023-02-08T09:46:12;14.57;;;9.30;;
18804;SDS011;9530;48.930;9.526;2023-02-08T09:48:42;15.70;;;9.50;;
18804;SDS011;9530;48.930;9.526;2023-02-08T09:51:13;14.90;;;9.63;;
18804;SDS011;9530;48.930;9.526;2023-02-08T09:53:50;16.57;;;9.40;;
18804;SDS011;9530;48.930;9.526;2023-02-08T09:56:23;16.43;;;9.73;;
18804;SDS011;9530;48.930;9.526;2023-02-08T09:58:54;16.33;;;10.20;;
18804;SDS011;9530;48.930;9.526;2023-02-08T10:01:24;16.27;;;8.97;;
18804;SDS011;9530;48.930;9.526;2023-02-08T10:03:54;14.33;;;9.10;;
18804;SDS011;9530;48.930;9.526;2023-02-08T10:06:24;14.20;;;8.60;;
18804;SDS011;9530;48.930;9.526;2023-02-08T10:08:51;14.80;;;9.43;;
18804;SDS011;9530;48.930;9.526;2023-02-08T10:11:22;16.23;;;8.70;;
18804;SDS011;9530;48.930;9.526;2023-02-08T10:14:01;14.30;;;9.13;;
18804;SDS011;9530;48.930;9.526;2023-02-08T10:16:51;16.80;;;9.23;;
18804;SDS011;9530;48.930;9.526;2023-02-08T10:19:32;13.40;;;8.60;;
18804;SDS011;9530;48.930;9.526;2023-02-08T10:22:14;14.73;;;9.00;;
18804;SDS011;9530;48.930;9.526;2023-02-08T10:27:47;15.07;;;9.27;;
18804;SDS011;9530;48.930;9.526;2023-02-08T10:30:27;14.37;;;8.20;;
18804;SDS011;9530;48.930;9.526;2023-02-08T10:33:06;13.80;;;8.40;;
18804;SDS011;9530;48.930;9.526;2023-02-08T10:35:40;16.50;;;8.50;;
18804;SDS011;9530;48.930;9.526;2023-02-08T10:40:55;13.50;;;8.50;;
18804;SDS011;9530;48.930;9.526;2023-02-08T10:43:27;13.00;;;7.70;;
18804;SDS011;9530;48.930;9.526;2023-02-08T10:46:02;12.70;;;8.47;;
18804;SDS011;9530;48.930;9.526;2023-02-08T10:48:41;12.73;;;7.53;;
18804;SDS011;9530;48.930;9.526;2023-02-08T10:51:15;11.70;;;8.20;;
18804;SDS011;9530;48.930;9.526;2023-02-08T10:53:43;12.10;;;7.83;;
18804;SDS011;9530;48.930;9.526;2023-02-08T10:56:16;17.97;;;9.00;;
18804;SDS011;9530;48.930;9.526;2023-02-08T10:58:57;10.60;;;7.70;;
18804;SDS011;9530;48.930;9.526;2023-02-08T11:01:24;10.03;;;6.47;;
18804;SDS011;9530;48.930;9.526;2023-02-08T11:04:00;13.63;;;7.97;;
18804;SDS011;9530;48.930;9.526;2023-02-08T11:06:28;11.60;;;6.90;;
18804;SDS011;9530;48.930;9.526;2023-02-08T11:08:55;13.07;;;7.20;;
18804;SDS011;9530;48.930;9.526;2023-02-08T11:11:23;10.80;;;6.77;;
18804;SDS011;9530;48.930;9.526;2023-02-08T11:13:51;10.80;;;6.57;;
18804;SDS011;9530;48.930;9.526;2023-02-08T11:16:20;45.47;;;22.13;;
18804;SDS011;9530;48.930;9.526;2023-02-08T11:18:48;13.07;;;6.53;;
18804;SDS011;9530;48.930;9.526;2023-02-08T11:21:22;9.90;;;6.40;;
18804;SDS011;9530;48.930;9.526;2023-02-08T11:23:53;10.87;;;6.70;;
18804;SDS011;9530;48.930;9.526;2023-02-08T11:26:23;10.70;;;6.63;;
18804;SDS011;9530;48.930;9.526;2023-02-08T11:28:58;12.73;;;7.27;;
18804;SDS011;9530;48.930;9.526;2023-02-08T11:31:27;11.03;;;7.17;;
18804;SDS011;9530;48.930;9.526;2023-02-08T11:33:58;9.60;;;6.27;;
18804;SDS011;9530;48.930;9.526;2023-02-08T11:36:28;9.67;;;6.70;;
18804;SDS011;9530;48.930;9.526;2023-02-08T11:38:59;12.80;;;6.77;;
18804;SDS011;9530;48.930;9.526;2023-02-08T11:41:27;10.50;;;6.03;;
18804;SDS011;9530;48.930;9.526;2023-02-08T11:43:56;10.33;;;5.93;;
18804;SDS011;9530;48.930;9.526;2023-02-08T11:46:26;9.97;;;6.07;;
18804;SDS011;9530;48.930;9.526;2023-02-08T11:48:54;10.70;;;6.70;;
18804;SDS011;9530;48.930;9.526;2023-02-08T11:51:23;8.67;;;5.90;;
18804;SDS011;9530;48.930;9.526;2023-02-08T11:53:54;10.60;;;5.67;;
18804;SDS011;9530;48.930;9.526;2023-02-08T11:56:22;9.57;;;6.03;;
18804;SDS011;9530;48.930;9.526;2023-02-08T11:58:55;9.83;;;6.00;;
18804;SDS011;9530;48.930;9.526;2023-02-08T12:01:24;10.53;;;5.77;;
18804;SDS011;9530;48.930;9.526;2023-02-08T12:03:54;12.83;;;6.83;;
18804;SDS011;9530;48.930;9.526;2023-02-08T12:06:32;12.37;;;6.60;;
18804;SDS011;9530;48.930;9.526;2023-02-08T12:09:15;11.27;;;6.00;;
18804;SDS011;9530;48.930;9.526;2023-02-08T12:12:04;9.50;;;5.53;;
18804;SDS011;9530;48.930;9.526;2023-02-08T12:14:47;9.70;;;5.50;;
18804;SDS011;9530;48.930;9.526;2023-02-08T12:17:28;9.33;;;5.80;;
18804;SDS011;9530;48.930;9.526;2023-02-08T12:20:17;8.90;;;5.50;;
18804;SDS011;9530;48.930;9.526;2023-02-08T12:23:01;7.83;;;5.47;;
18804;SDS011;9530;48.930;9.526;2023-02-08T12:25:43;11.13;;;5.60;;
18804;SDS011;9530;48.930;9.526;2023-02-08T12:28:15;9.47;;;6.00;;
18804;SDS011;9530;48.930;9.526;2023-02-08T12:30:50;11.60;;;5.37;;
18804;SDS011;9530;48.930;9.526;2023-02-08T12:33:33;13.30;;;6.30;;
18804;SDS011;9530;48.930;9.526;2023-02-08T12:36:19;9.33;;;5.63;;
18804;SDS011;9530;48.930;9.526;2023-02-08T12:39:07;10.93;;;6.10;;
18804;SDS011;9530;48.930;9.526;2023-02-08T12:42:05;10.17;;;5.13;;
18804;SDS011;9530;48.930;9.526;2023-02-08T12:44:44;10.40;;;5.50;;
18804;SDS011;9530;48.930;9.526;2023-02-08T12:47:26;9.63;;;5.73;;
18804;SDS011;9530;48.930;9.526;2023-02-08T12:50:06;8.50;;;5.80;;
18804;SDS011;9530;48.930;9.526;2023-02-08T12:52:44;10.07;;;6.43;;
18804;SDS011;9530;48.930;9.526;2023-02-08T12:55:15;8.43;;;5.67;;
18804;SDS011;9530;48.930;9.526;2023-02-08T12:57:48;9.50;;;6.30;;
18804;SDS011;9530;48.930;9.526;2023-02-08T13:00:18;10.13;;;5.93;;
18804;SDS011;9530;48.930;9.526;2023-02-08T13:02:50;10.40;;;5.73;;
18804;SDS011;9530;48.930;9.526;2023-02-08T13:05:24;8.60;;;5.40;;
18804;SDS011;9530;48.930;9.526;2023-02-08T13:07:57;9.33;;;5.77;;
18804;SDS011;9530;48.930;9.526;2023-02-08T13:10:28;8.50;;;5.90;;
18804;SDS011;9530;48.930;9.526;2023-02-08T13:13:03;9.33;;;5.40;;
18804;SDS011;9530;48.930;9.526;2023-02-08T13:15:37;8.90;;;6.03;;
18804;SDS011;9530;48.930;9.526;2023-02-08T13:18:10;12.20;;;6.60;;
18804;SDS011;9530;48.930;9.526;2023-02-08T13:20:42;9.27;;;6.00;;
18804;SDS011;9530;48.930;9.526;2023-02-08T13:23:13;9.80;;;6.10;;
18804;SDS011;9530;48.930;9.526;2023-02-08T13:25:45;8.63;;;5.97;;
18804;SDS011;9530;48.930;9.526;2023-02-08T13:28:16;11.27;;;6.63;;
18804;SDS011;9530;48.930;9.526;2023-02-08T13:30:45;9.73;;;6.23;;
18804;SDS011;9530;48.930;9.526;2023-02-08T13:33:21;10.30;;;5.73;;
18804;SDS011;9530;48.930;9.526;2023-02-08T13:35:54;8.90;;;5.83;;
18804;SDS011;9530;48.930;9.526;2023-02-08T13:38:24;12.27;;;6.07;;
18804;SDS011;9530;48.930;9.526;2023-02-08T13:41:04;9.50;;;6.20;;
18804;SDS011;9530;48.930;9.526;2023-02-08T13:43:37;9.60;;;6.30;;
18804;SDS011;9530;48.930;9.526;2023-02-08T13:46:07;12.10;;;7.10;;
18804;SDS011;9530;48.930;9.526;2023-02-08T13:48:43;12.70;;;6.87;;
18804;SDS011;9530;48.930;9.526;2023-02-08T13:54:21;13.47;;;6.87;;
18804;SDS011;9530;48.930;9.526;2023-02-08T13:56:48;11.33;;;6.83;;
18804;SDS011;9530;48.930;9.526;2023-02-08T13:59:29;9.53;;;6.33;;
18804;SDS011;9530;48.930;9.526;2023-02-08T14:02:20;12.77;;;6.77;;
18804;SDS011;9530;48.930;9.526;2023-02-08T14:04:52;9.47;;;6.40;;
18804;SDS011;9530;48.930;9.526;2023-02-08T14:07:45;9.67;;;6.50;;
18804;SDS011;9530;48.930;9.526;2023-02-08T14:10:20;12.43;;;6.90;;
18804;SDS011;9530;48.930;9.526;2023-02-08T14:12:56;11.13;;;6.57;;
18804;SDS011;9530;48.930;9.526;2023-02-08T14:15:32;22.30;;;7.70;;
18804;SDS011;9530;48.930;9.526;2023-02-08T14:18:01;10.90;;;6.73;;
18804;SDS011;9530;48.930;9.526;2023-02-08T14:20:30;12.98;;;7.75;;
18804;SDS011;9530;48.930;9.526;2023-02-08T14:23:00;10.27;;;7.00;;
18804;SDS011;9530;48.930;9.526;2023-02-08T14:25:37;11.20;;;7.00;;
18804;SDS011;9530;48.930;9.526;2023-02-08T14:28:06;10.73;;;6.90;;
18804;SDS011;9530;48.930;9.526;2023-02-08T14:30:56;13.00;;;7.90;;
18804;SDS011;9530;48.930;9.526;2023-02-08T14:33:25;11.77;;;7.27;;
18804;SDS011;9530;48.930;9.526;2023-02-08T14:35:55;12.93;;;7.07;;
18804;SDS011;9530;48.930;9.526;2023-02-08T14:38:31;9.73;;;6.73;;
18804;SDS011;9530;48.930;9.526;2023-02-08T14:50:18;13.83;;;7.70;;
18804;SDS011;9530;48.930;9.526;2023-02-08T14:52:50;11.53;;;7.47;;
18804;SDS011;9530;48.930;9.526;2023-02-08T14:55:22;10.90;;;7.40;;
18804;SDS011;9530;48.930;9.526;2023-02-08T14:57:52;11.83;;;7.57;;
18804;SDS011;9530;48.930;9.526;2023-02-08T15:00:20;11.60;;;7.70;;
18804;SDS011;9530;48.930;9.526;2023-02-08T15:02:51;12.17;;;7.90;;
18804;SDS011;9530;48.930;9.526;2023-02-08T15:05:20;10.80;;;7.07;;
18804;SDS011;9530;48.930;9.526;2023-02-08T15:07:48;13.97;;;8.30;;
18804;SDS011;9530;48.930;9.526;2023-02-08T15:10:18;12.43;;;7.93;;
18804;SDS011;9530;48.930;9.526;2023-02-08T15:12:46;11.53;;;7.60;;
18804;SDS011;9530;48.930;9.526;2023-02-08T15:15:21;12.97;;;8.47;;
18804;SDS011;9530;48.930;9.526;2023-02-08T15:17:52;11.43;;;8.03;;
18804;SDS011;9530;48.930;9.526;2023-02-08T15:20:21;11.90;;;8.13;;
18804;SDS011;9530;48.930;9.526;2023-02-08T15:22:55;16.40;;;9.20;;
18804;SDS011;9530;48.930;9.526;2023-02-08T15:25:25;14.20;;;8.50;;
18804;SDS011;9530;48.930;9.526;2023-02-08T15:27:54;13.10;;;7.70;;
18804;SDS011;9530;48.930;9.526;2023-02-08T15:30:24;14.47;;;8.47;;